createdAt,value
2016-05-08T00:00:48.994Z,1002.93
2016-05-08T00:01:49.043Z,1002.92
2016-05-08T00:02:49.077Z,1002.9
2016-05-08T00:03:49.112Z,1002.95
2016-05-08T00:04:49.161Z,1002.91
2016-05-08T00:05:49.195Z,1002.96
2016-05-08T00:06:49.229Z,1002.94
2016-05-08T00:07:49.279Z,1002.94
2016-05-08T00:08:49.312Z,1002.95
2016-05-08T00:09:49.362Z,1002.94
2016-05-08T00:10:49.412Z,1002.94
2016-05-08T00:11:49.445Z,1002.96
2016-05-08T00:12:49.511Z,1002.94
2016-05-08T00:13:49.529Z,1002.94
2016-05-08T00:14:49.562Z,1002.95
2016-05-08T00:15:49.612Z,1002.97
2016-05-08T00:16:49.647Z,1002.93
2016-05-08T00:17:49.696Z,1002.93
2016-05-08T00:18:49.730Z,1002.93
2016-05-08T00:19:49.795Z,1002.91
2016-05-08T00:20:49.813Z,1002.9
2016-05-08T00:21:49.847Z,1002.87
2016-05-08T00:22:49.898Z,1002.88
2016-05-08T00:23:49.947Z,1002.87
2016-05-08T00:24:49.988Z,1002.86
2016-05-08T00:25:50.021Z,1002.88
2016-05-08T00:26:50.071Z,1002.9
2016-05-08T00:27:50.104Z,1002.89
2016-05-08T00:28:50.140Z,1002.88
2016-05-08T00:29:50.188Z,1002.9
2016-05-08T00:30:50.238Z,1002.87
2016-05-08T00:31:50.273Z,1002.88
2016-05-08T00:32:50.306Z,1002.9
2016-05-08T00:33:50.355Z,1002.9
2016-05-08T00:34:50.389Z,1002.93
2016-05-08T00:35:50.439Z,1002.87
2016-05-08T00:36:50.473Z,1002.92
2016-05-08T00:37:50.523Z,1002.91
2016-05-08T00:38:50.556Z,1002.9
2016-05-08T00:39:50.606Z,1002.92
2016-05-08T00:40:50.639Z,1002.91
2016-05-08T00:41:50.689Z,1002.91
2016-05-08T00:42:51.005Z,1002.94
2016-05-08T00:43:50.773Z,1002.95
2016-05-08T00:44:50.807Z,1002.95
2016-05-08T00:45:50.841Z,1002.93
2016-05-08T00:46:50.891Z,1002.93
2016-05-08T00:47:50.925Z,1002.91
2016-05-08T00:48:50.974Z,1002.91
2016-05-08T00:49:51.008Z,1002.95
2016-05-08T00:50:51.057Z,1002.92
2016-05-08T00:51:51.091Z,1002.94
2016-05-08T00:52:51.171Z,1002.94
2016-05-08T00:53:51.175Z,1002.97
2016-05-08T00:54:51.209Z,1002.96
2016-05-08T00:55:51.258Z,1003.02
2016-05-08T00:56:51.292Z,1002.98
2016-05-08T00:57:51.342Z,1002.97
2016-05-08T00:58:51.375Z,1002.94
2016-05-08T00:59:51.473Z,1002.96
2016-05-08T01:00:51.460Z,1002.93
2016-05-08T01:01:51.493Z,1002.93
2016-05-08T01:02:51.542Z,1002.94
2016-05-08T01:03:51.577Z,1002.9
2016-05-08T01:04:51.626Z,1002.9
2016-05-08T01:05:51.660Z,1002.9
2016-05-08T01:06:51.710Z,1002.95
2016-05-08T01:07:51.744Z,1002.96
2016-05-08T01:08:51.792Z,1002.99
2016-05-08T01:09:51.827Z,1003.01
2016-05-08T01:10:51.877Z,1002.99
2016-05-08T01:11:51.911Z,1002.97
2016-05-08T01:12:52.039Z,1003.03
2016-05-08T01:13:51.994Z,1003.05
2016-05-08T01:14:52.028Z,1003.02
2016-05-08T01:15:52.078Z,1003.01
2016-05-08T01:16:52.112Z,1003.02
2016-05-08T01:17:52.161Z,1002.99
2016-05-08T01:18:52.195Z,1002.96
2016-05-08T01:19:52.229Z,1003.02
2016-05-08T01:20:52.279Z,1003.03
2016-05-08T01:21:52.313Z,1003
2016-05-08T01:22:52.363Z,1003.03
2016-05-08T01:23:52.396Z,1003.02
2016-05-08T01:24:52.447Z,1003.03
2016-05-08T01:25:52.480Z,1003.07
2016-05-08T01:26:52.514Z,1003.05
2016-05-08T01:27:52.563Z,1003.08
2016-05-08T01:28:52.645Z,1003.1
2016-05-08T01:29:52.632Z,1003.11
2016-05-08T01:30:52.682Z,1003.08
2016-05-08T01:31:52.715Z,1003.09
2016-05-08T01:32:52.781Z,1003.11
2016-05-08T01:33:52.815Z,1003.12
2016-05-08T01:34:52.849Z,1003.14
2016-05-08T01:35:52.882Z,1003.09
2016-05-08T01:36:52.932Z,1003.08
2016-05-08T01:37:52.965Z,1003.12
2016-05-08T01:38:53.000Z,1003.16
2016-05-08T01:39:53.049Z,1003.23
2016-05-08T01:40:53.084Z,1003.18
2016-05-08T01:41:53.117Z,1003.2
2016-05-08T01:42:53.479Z,1003.17
2016-05-08T01:43:53.217Z,1003.22
2016-05-08T01:44:53.251Z,1003.21
2016-05-08T01:45:53.284Z,1003.19
2016-05-08T01:46:53.334Z,1003.2
2016-05-08T01:47:53.368Z,1003.18
2016-05-08T01:48:53.417Z,1003.15
2016-05-08T01:49:53.451Z,1003.14
2016-05-08T01:50:53.532Z,1003.16
2016-05-08T01:51:53.534Z,1003.17
2016-05-08T01:52:53.584Z,1003.12
2016-05-08T01:53:53.603Z,1003.1
2016-05-08T01:54:53.700Z,1003.09
2016-05-08T01:55:53.702Z,1003.1
2016-05-08T01:56:53.736Z,1003.11
2016-05-08T01:57:53.785Z,1003.15
2016-05-08T01:58:53.819Z,1003.16
2016-05-08T01:59:53.853Z,1003.16
2016-05-08T02:00:53.903Z,1003.16
2016-05-08T02:01:53.969Z,1003.15
2016-05-08T02:02:53.986Z,1003.15
2016-05-08T02:03:54.020Z,1003.13
2016-05-08T02:04:54.054Z,1003.16
2016-05-08T02:05:54.088Z,1003.17
2016-05-08T02:06:54.138Z,1003.19
2016-05-08T02:07:54.172Z,1003.17
2016-05-08T02:08:54.221Z,1003.2
2016-05-08T02:09:54.254Z,1003.18
2016-05-08T02:10:54.305Z,1003.14
2016-05-08T02:11:54.339Z,1003.16
2016-05-08T02:12:54.388Z,1003.14
2016-05-08T02:13:54.423Z,1003.17
2016-05-08T02:14:54.456Z,1003.23
2016-05-08T02:15:54.506Z,1003.14
2016-05-08T02:16:54.539Z,1003.17
2016-05-08T02:17:54.574Z,1003.15
2016-05-08T02:18:54.623Z,1003.12
2016-05-08T02:19:54.657Z,1003.15
2016-05-08T02:20:54.691Z,1003.13
2016-05-08T02:21:54.740Z,1003.11
2016-05-08T02:22:54.775Z,1003.13
2016-05-08T02:23:54.840Z,1003.11
2016-05-08T02:24:54.858Z,1003.09
2016-05-08T02:25:54.908Z,1003.06
2016-05-08T02:26:54.941Z,1003.04
2016-05-08T02:27:54.975Z,1003.02
2016-05-08T02:28:55.025Z,1002.99
2016-05-08T02:29:55.059Z,1003.01
2016-05-08T02:30:55.108Z,1002.97
2016-05-08T02:31:55.142Z,1002.96
2016-05-08T02:32:55.177Z,1003.02
2016-05-08T02:33:55.226Z,1003.01
2016-05-08T02:34:55.307Z,1003.01
2016-05-08T02:35:55.294Z,1002.99
2016-05-08T02:36:55.343Z,1003.03
2016-05-08T02:37:55.377Z,1003.03
2016-05-08T02:38:55.411Z,1003.03
2016-05-08T02:39:55.460Z,1003.01
2016-05-08T02:40:55.495Z,1003.02
2016-05-08T02:41:55.609Z,1002.98
2016-05-08T02:42:55.658Z,1002.96
2016-05-08T02:43:55.739Z,1002.96
2016-05-08T02:44:55.837Z,1002.97
2016-05-08T02:45:55.918Z,1002.98
2016-05-08T02:46:55.995Z,1002.98
2016-05-08T02:47:56.047Z,1002.98
2016-05-08T02:48:56.097Z,1003.02
2016-05-08T02:49:56.164Z,1002.97
2016-05-08T02:50:56.216Z,1003.02
2016-05-08T02:51:56.259Z,1003.01
2016-05-08T02:52:56.330Z,1003.03
2016-05-08T02:53:56.356Z,1003.01
2016-05-08T02:54:56.411Z,1003.04
2016-05-08T02:55:56.450Z,1003.04
2016-05-08T02:56:56.504Z,1003.03
2016-05-08T02:57:56.556Z,1003.03
2016-05-08T02:58:56.576Z,1003.04
2016-05-08T02:59:56.628Z,1003.06
2016-05-08T03:00:56.665Z,1003.08
2016-05-08T03:01:56.700Z,1003.08
2016-05-08T03:02:56.750Z,1003.08
2016-05-08T03:03:56.800Z,1003.11
2016-05-08T03:04:56.819Z,1003.09
2016-05-08T03:05:56.870Z,1003.1
2016-05-08T03:06:56.904Z,1003.13
2016-05-08T03:07:56.954Z,1003.15
2016-05-08T03:08:56.988Z,1003.19
2016-05-08T03:09:57.023Z,1003.2
2016-05-08T03:10:57.119Z,1003.21
2016-05-08T03:11:57.107Z,1003.19
2016-05-08T03:12:57.141Z,1003.2
2016-05-08T03:13:57.190Z,1003.17
2016-05-08T03:14:57.224Z,1003.18
2016-05-08T03:15:57.273Z,1003.21
2016-05-08T03:16:57.308Z,1003.21
2016-05-08T03:17:57.342Z,1003.26
2016-05-08T03:18:57.391Z,1003.24
2016-05-08T03:19:57.425Z,1003.24
2016-05-08T03:20:57.460Z,1003.23
2016-05-08T03:21:57.509Z,1003.21
2016-05-08T03:22:57.543Z,1003.23
2016-05-08T03:23:57.592Z,1003.25
2016-05-08T03:24:57.642Z,1003.22
2016-05-08T03:25:57.675Z,1003.25
2016-05-08T03:26:57.710Z,1003.27
2016-05-08T03:27:57.744Z,1003.29
2016-05-08T03:28:57.778Z,1003.29
2016-05-08T03:29:57.827Z,1003.27
2016-05-08T03:30:57.862Z,1003.26
2016-05-08T03:31:57.910Z,1003.27
2016-05-08T03:32:57.945Z,1003.28
2016-05-08T03:33:57.978Z,1003.28
2016-05-08T03:34:58.027Z,1003.27
2016-05-08T03:35:58.062Z,1003.25
2016-05-08T03:36:58.096Z,1003.26
2016-05-08T03:37:58.146Z,1003.28
2016-05-08T03:38:58.179Z,1003.3
2016-05-08T03:39:58.213Z,1003.3
2016-05-08T03:40:58.263Z,1003.27
2016-05-08T03:41:58.296Z,1003.31
2016-05-08T03:42:58.347Z,1003.32
2016-05-08T03:43:58.380Z,1003.32
2016-05-08T03:44:58.415Z,1003.33
2016-05-08T03:45:58.463Z,1003.35
2016-05-08T03:46:58.498Z,1003.28
2016-05-08T03:47:58.532Z,1003.29
2016-05-08T03:48:58.582Z,1003.32
2016-05-08T03:49:58.615Z,1003.31
2016-05-08T03:50:58.681Z,1003.29
2016-05-08T03:51:58.698Z,1003.28
2016-05-08T03:52:58.748Z,1003.28
2016-05-08T03:53:58.767Z,1003.25
2016-05-08T03:54:58.817Z,1003.3
2016-05-08T03:55:58.850Z,1003.31
2016-05-08T03:56:58.900Z,1003.34
2016-05-08T03:57:59.293Z,1003.35
2016-05-08T03:58:58.967Z,1003.32
2016-05-08T03:59:59.017Z,1003.3
2016-05-08T04:00:59.051Z,1003.32
2016-05-08T04:01:59.086Z,1003.32
2016-05-08T04:02:59.134Z,1003.31
2016-05-08T04:03:59.169Z,1003.33
2016-05-08T04:04:59.249Z,1003.35
2016-05-08T04:05:59.252Z,1003.33
2016-05-08T04:06:59.302Z,1003.36
2016-05-08T04:07:59.336Z,1003.35
2016-05-08T04:08:59.369Z,1003.34
2016-05-08T04:09:59.403Z,1003.33
2016-05-08T04:10:59.453Z,1003.31
2016-05-08T04:11:59.488Z,1003.34
2016-05-08T04:12:59.521Z,1003.39
2016-05-08T04:13:59.571Z,1003.35
2016-05-08T04:14:59.604Z,1003.42
2016-05-08T04:15:59.654Z,1003.46
2016-05-08T04:16:59.688Z,1003.47
2016-05-08T04:17:59.738Z,1003.45
2016-05-08T04:18:59.771Z,1003.48
2016-05-08T04:19:59.805Z,1003.51
2016-05-08T04:20:59.840Z,1003.48
2016-05-08T04:21:59.890Z,1003.53
2016-05-08T04:22:59.938Z,1003.56
2016-05-08T04:23:59.972Z,1003.58
2016-05-08T04:25:00.006Z,1003.56
2016-05-08T04:26:00.040Z,1003.56
2016-05-08T04:27:00.074Z,1003.55
2016-05-08T04:28:00.124Z,1003.52
2016-05-08T04:29:00.158Z,1003.52
2016-05-08T04:30:00.206Z,1003.56
2016-05-08T04:31:00.241Z,1003.56
2016-05-08T04:32:00.276Z,1003.58
2016-05-08T04:33:00.325Z,1003.61
2016-05-08T04:34:00.358Z,1003.6
2016-05-08T04:35:00.392Z,1003.59
2016-05-08T04:36:00.441Z,1003.58
2016-05-08T04:37:00.508Z,1003.61
2016-05-08T04:38:00.510Z,1003.55
2016-05-08T04:39:00.560Z,1003.57
2016-05-08T04:40:00.593Z,1003.55
2016-05-08T04:41:00.644Z,1003.59
2016-05-08T04:42:00.677Z,1003.59
2016-05-08T04:43:00.710Z,1003.58
2016-05-08T04:44:00.760Z,1003.62
2016-05-08T04:45:00.795Z,1003.63
2016-05-08T04:46:00.828Z,1003.66
2016-05-08T04:47:00.878Z,1003.62
2016-05-08T04:48:00.912Z,1003.67
2016-05-08T04:49:00.961Z,1003.66
2016-05-08T04:50:00.995Z,1003.67
2016-05-08T04:51:01.046Z,1003.66
2016-05-08T04:52:01.079Z,1003.66
2016-05-08T04:53:01.113Z,1003.67
2016-05-08T04:54:01.146Z,1003.66
2016-05-08T04:55:01.196Z,1003.72
2016-05-08T04:56:01.230Z,1003.73
2016-05-08T04:57:01.280Z,1003.76
2016-05-08T04:58:01.486Z,1003.81
2016-05-08T04:59:01.347Z,1003.82
2016-05-08T05:00:01.397Z,1003.83
2016-05-08T05:01:01.431Z,1003.88
2016-05-08T05:02:01.481Z,1003.88
2016-05-08T05:03:01.515Z,1003.86
2016-05-08T05:04:01.548Z,1003.88
2016-05-08T05:05:01.583Z,1003.87
2016-05-08T05:06:01.663Z,1003.92
2016-05-08T05:07:01.666Z,1003.91
2016-05-08T05:08:01.716Z,1003.96
2016-05-08T05:09:01.750Z,1003.92
2016-05-08T05:10:01.799Z,1003.96
2016-05-08T05:11:01.833Z,1003.97
2016-05-08T05:12:01.883Z,1003.98
2016-05-08T05:13:01.932Z,1003.95
2016-05-08T05:14:01.950Z,1003.93
2016-05-08T05:15:02.000Z,1003.96
2016-05-08T05:16:02.034Z,1003.94
2016-05-08T05:17:02.068Z,1003.93
2016-05-08T05:18:02.118Z,1003.96
2016-05-08T05:19:02.151Z,1003.97
2016-05-08T05:20:02.201Z,1003.97
2016-05-08T05:21:02.235Z,1003.96
2016-05-08T05:22:02.285Z,1003.96
2016-05-08T05:23:02.318Z,1003.95
2016-05-08T05:24:02.384Z,1003.95
2016-05-08T05:25:02.402Z,1003.94
2016-05-08T05:26:02.437Z,1003.98
2016-05-08T05:27:02.485Z,1003.98
2016-05-08T05:28:02.598Z,1003.96
2016-05-08T05:29:02.553Z,1003.98
2016-05-08T05:30:02.603Z,1003.97
2016-05-08T05:31:02.637Z,1003.97
2016-05-08T05:32:02.671Z,1004.03
2016-05-08T05:33:02.720Z,1004.02
2016-05-08T05:34:02.754Z,1004.02
2016-05-08T05:35:02.836Z,1004.06
2016-05-08T05:36:02.839Z,1004.04
2016-05-08T05:37:02.887Z,1004.02
2016-05-08T05:38:02.921Z,1004.07
2016-05-08T05:39:02.971Z,1004.02
2016-05-08T05:40:03.005Z,1004.05
2016-05-08T05:41:03.039Z,1004.07
2016-05-08T05:42:03.089Z,1004.04
2016-05-08T05:43:03.122Z,1004.07
2016-05-08T05:44:03.171Z,1004.04
2016-05-08T05:45:03.205Z,1004.06
2016-05-08T05:46:03.287Z,1004.05
2016-05-08T05:47:03.289Z,1004.07
2016-05-08T05:48:03.324Z,1004.06
2016-05-08T05:49:03.373Z,1004.08
2016-05-08T05:50:03.407Z,1004.1
2016-05-08T05:51:03.456Z,1004.13
2016-05-08T05:52:03.491Z,1004.08
2016-05-08T05:53:03.540Z,1004.1
2016-05-08T05:54:03.574Z,1004.11
2016-05-08T05:55:03.623Z,1004.11
2016-05-08T05:56:03.657Z,1004.11
2016-05-08T05:57:03.706Z,1004.09
2016-05-08T05:58:03.740Z,1004.08
2016-05-08T05:59:03.775Z,1004.1
2016-05-08T06:00:03.824Z,1004.08
2016-05-08T06:01:03.858Z,1004.09
2016-05-08T06:02:03.908Z,1004.07
2016-05-08T06:03:03.942Z,1004.07
2016-05-08T06:04:03.976Z,1004.09
2016-05-08T06:05:04.026Z,1004.06
2016-05-08T06:06:04.059Z,1004.07
2016-05-08T06:07:04.108Z,1004.06
2016-05-08T06:08:04.174Z,1004.03
2016-05-08T06:09:04.192Z,1004.07
2016-05-08T06:10:04.241Z,1004.04
2016-05-08T06:11:04.276Z,1004.06
2016-05-08T06:12:04.310Z,1004.06
2016-05-08T06:13:04.594Z,1004.05
2016-05-08T06:14:04.394Z,1004.08
2016-05-08T06:15:04.443Z,1004.04
2016-05-08T06:16:04.477Z,1004.06
2016-05-08T06:17:04.510Z,1004.08
2016-05-08T06:18:04.560Z,1004.1
2016-05-08T06:19:04.641Z,1004.11
2016-05-08T06:20:04.644Z,1004.13
2016-05-08T06:21:04.677Z,1004.1
2016-05-08T06:22:04.727Z,1004.13
2016-05-08T06:23:04.760Z,1004.07
2016-05-08T06:24:04.795Z,1004.02
2016-05-08T06:25:04.845Z,1004.02
2016-05-08T06:26:04.878Z,1004.03
2016-05-08T06:27:04.929Z,1004.03
2016-05-08T06:28:05.009Z,1004.01
2016-05-08T06:29:05.012Z,1004.08
2016-05-08T06:30:05.045Z,1004.02
2016-05-08T06:31:05.095Z,1004.07
2016-05-08T06:32:05.129Z,1004.05
2016-05-08T06:33:05.178Z,1004.06
2016-05-08T06:34:05.212Z,1004.07
2016-05-08T06:35:05.262Z,1004.05
2016-05-08T06:36:05.296Z,1004.06
2016-05-08T06:37:05.345Z,1004.06
2016-05-08T06:38:05.380Z,1004.04
2016-05-08T06:39:05.444Z,1004.08
2016-05-08T06:40:05.463Z,1004.02
2016-05-08T06:41:05.544Z,1004.05
2016-05-08T06:42:05.547Z,1004.03
2016-05-08T06:43:05.581Z,1004.03
2016-05-08T06:44:05.630Z,1004.03
2016-05-08T06:45:05.680Z,1004.05
2016-05-08T06:46:05.714Z,1004.05
2016-05-08T06:47:05.763Z,1004.05
2016-05-08T06:48:05.797Z,1004.06
2016-05-08T06:49:05.847Z,1004.1
2016-05-08T06:50:05.880Z,1004.07
2016-05-08T06:51:05.930Z,1004.07
2016-05-08T06:52:05.964Z,1004.05
2016-05-08T06:53:06.014Z,1004.09
2016-05-08T06:54:06.048Z,1004.1
2016-05-08T06:55:06.097Z,1004.12
2016-05-08T06:56:06.131Z,1004.07
2016-05-08T06:57:06.181Z,1004.11
2016-05-08T06:58:06.214Z,1004.09
2016-05-08T06:59:06.264Z,1004.09
2016-05-08T07:00:06.298Z,1004.1
2016-05-08T07:01:06.348Z,1004.06
2016-05-08T07:02:06.382Z,1004.08
2016-05-08T07:03:06.447Z,1004.1
2016-05-08T07:04:06.465Z,1004.09
2016-05-08T07:05:06.515Z,1004.06
2016-05-08T07:06:06.564Z,1004.08
2016-05-08T07:07:06.598Z,1004.07
2016-05-08T07:08:06.647Z,1004.07
2016-05-08T07:09:06.681Z,1004.09
2016-05-08T07:10:06.731Z,1004.07
2016-05-08T07:11:06.764Z,1004.11
2016-05-08T07:12:06.799Z,1004.07
2016-05-08T07:13:07.239Z,1004.09
2016-05-08T07:14:06.883Z,1004.12
2016-05-08T07:15:06.933Z,1004.09
2016-05-08T07:16:06.966Z,1004.06
2016-05-08T07:17:07.047Z,1004.12
2016-05-08T07:18:07.049Z,1004.09
2016-05-08T07:19:07.115Z,1004.06
2016-05-08T07:20:07.133Z,1004.02
2016-05-08T07:21:07.182Z,1003.99
2016-05-08T07:22:07.217Z,1004.07
2016-05-08T07:23:07.266Z,1003.99
2016-05-08T07:24:07.316Z,1003.99
2016-05-08T07:25:07.350Z,1003.99
2016-05-08T07:26:07.384Z,1003.96
2016-05-08T07:27:07.433Z,1003.98
2016-05-08T07:28:07.515Z,1003.98
2016-05-08T07:29:07.532Z,1003.99
2016-05-08T07:30:07.565Z,1003.95
2016-05-08T07:31:07.601Z,1003.94
2016-05-08T07:32:07.665Z,1003.96
2016-05-08T07:33:07.684Z,1003.97
2016-05-08T07:34:07.734Z,1003.99
2016-05-08T07:35:07.814Z,1003.99
2016-05-08T07:36:07.817Z,1003.97
2016-05-08T07:37:07.867Z,1003.93
2016-05-08T07:38:07.901Z,1003.95
2016-05-08T07:39:07.950Z,1003.97
2016-05-08T07:40:07.983Z,1003.92
2016-05-08T07:41:08.034Z,1003.88
2016-05-08T07:42:08.067Z,1003.86
2016-05-08T07:43:08.320Z,1003.88
2016-05-08T07:44:08.150Z,1003.84
2016-05-08T07:45:08.200Z,1003.83
2016-05-08T07:46:08.234Z,1003.86
2016-05-08T07:47:08.284Z,1003.82
2016-05-08T07:48:08.333Z,1003.81
2016-05-08T07:49:08.366Z,1003.81
2016-05-08T07:50:08.416Z,1003.85
2016-05-08T07:51:08.466Z,1003.85
2016-05-08T07:52:08.500Z,1003.84
2016-05-08T07:53:08.582Z,1003.82
2016-05-08T07:54:08.584Z,1003.82
2016-05-08T07:55:08.618Z,1003.87
2016-05-08T07:56:08.668Z,1003.84
2016-05-08T07:57:08.717Z,1003.83
2016-05-08T07:58:09.235Z,1003.89
2016-05-08T07:59:08.785Z,1003.89
2016-05-08T08:00:08.881Z,1003.88
2016-05-08T08:01:08.884Z,1003.88
2016-05-08T08:02:08.918Z,1003.86
2016-05-08T08:03:08.967Z,1003.84
2016-05-08T08:04:09.001Z,1003.88
2016-05-08T08:05:09.051Z,1003.93
2016-05-08T08:06:09.085Z,1003.9
2016-05-08T08:07:09.134Z,1004.01
2016-05-08T08:08:09.184Z,1003.86
2016-05-08T08:09:09.218Z,1003.92
2016-05-08T08:10:09.267Z,1003.94
2016-05-08T08:11:09.301Z,1003.91
2016-05-08T08:12:09.351Z,1003.88
2016-05-08T08:13:09.400Z,1003.96
2016-05-08T08:14:09.434Z,1003.9
2016-05-08T08:15:09.484Z,1003.91
2016-05-08T08:16:09.534Z,1003.89
2016-05-08T08:17:09.567Z,1003.9
2016-05-08T08:18:09.617Z,1003.92
2016-05-08T08:19:09.652Z,1003.9
2016-05-08T08:20:09.700Z,1003.94
2016-05-08T08:21:09.750Z,1003.96
2016-05-08T08:22:09.785Z,1003.9
2016-05-08T08:23:09.833Z,1003.93
2016-05-08T08:24:09.883Z,1003.9
2016-05-08T08:25:09.933Z,1003.95
2016-05-08T08:26:09.951Z,1003.88
2016-05-08T08:27:10.001Z,1003.99
2016-05-08T08:28:10.051Z,1003.9
2016-05-08T08:29:10.085Z,1003.93
2016-05-08T08:30:10.134Z,1003.95
2016-05-08T08:31:10.168Z,1003.98
2016-05-08T08:32:10.202Z,1003.98
2016-05-08T08:33:10.251Z,1003.98
2016-05-08T08:34:10.301Z,1003.98
2016-05-08T08:35:10.334Z,1003.92
2016-05-08T08:36:10.384Z,1003.99
2016-05-08T08:37:10.418Z,1003.97
2016-05-08T08:38:10.468Z,1003.97
2016-05-08T08:39:10.517Z,1003.88
2016-05-08T08:40:10.551Z,1003.94
2016-05-08T08:41:10.601Z,1003.99
2016-05-08T08:42:10.651Z,1003.92
2016-05-08T08:43:10.700Z,1004.01
2016-05-08T08:44:10.733Z,1004
2016-05-08T08:45:10.767Z,1003.96
2016-05-08T08:46:10.849Z,1003.95
2016-05-08T08:47:10.852Z,1003.93
2016-05-08T08:48:10.900Z,1003.99
2016-05-08T08:49:10.950Z,1003.88
2016-05-08T08:50:10.985Z,1003.9
2016-05-08T08:51:11.034Z,1003.91
2016-05-08T08:52:11.068Z,1003.87
2016-05-08T08:53:11.118Z,1003.81
2016-05-08T08:54:11.166Z,1003.85
2016-05-08T08:55:11.201Z,1003.89
2016-05-08T08:56:11.251Z,1003.85
2016-05-08T08:57:11.284Z,1003.86
2016-05-08T08:58:11.350Z,1003.86
2016-05-08T08:59:11.384Z,1003.83
2016-05-08T09:00:11.418Z,1003.78
2016-05-08T09:01:11.468Z,1003.84
2016-05-08T09:02:11.501Z,1003.82
2016-05-08T09:03:11.551Z,1003.86
2016-05-08T09:04:11.615Z,1003.84
2016-05-08T09:05:11.634Z,1003.85
2016-05-08T09:06:11.684Z,1003.8
2016-05-08T09:07:11.717Z,1003.83
2016-05-08T09:08:11.768Z,1003.85
2016-05-08T09:09:11.817Z,1003.83
2016-05-08T09:10:11.850Z,1003.85
2016-05-08T09:11:11.901Z,1003.83
2016-05-08T09:12:11.934Z,1003.87
2016-05-08T09:13:11.984Z,1003.89
2016-05-08T09:14:12.033Z,1003.9
2016-05-08T09:15:12.067Z,1003.87
2016-05-08T09:16:12.133Z,1003.83
2016-05-08T09:17:12.166Z,1003.8
2016-05-08T09:18:12.231Z,1003.73
2016-05-08T09:19:12.249Z,1003.7
2016-05-08T09:20:12.300Z,1003.82
2016-05-08T09:21:12.334Z,1003.77
2016-05-08T09:22:12.383Z,1003.72
2016-05-08T09:23:12.433Z,1003.8
2016-05-08T09:24:12.466Z,1003.76
2016-05-08T09:25:12.547Z,1003.76
2016-05-08T09:26:12.550Z,1003.8
2016-05-08T09:27:12.599Z,1003.76
2016-05-08T09:28:12.649Z,1003.77
2016-05-08T09:29:12.715Z,1003.82
2016-05-08T09:30:12.733Z,1003.76
2016-05-08T09:31:12.782Z,1003.79
2016-05-08T09:32:12.816Z,1003.76
2016-05-08T09:33:12.865Z,1003.79
2016-05-08T09:34:12.916Z,1003.73
2016-05-08T09:35:12.949Z,1003.78
2016-05-08T09:36:12.998Z,1003.81
2016-05-08T09:37:13.048Z,1003.73
2016-05-08T09:38:13.082Z,1003.77
2016-05-08T09:39:13.132Z,1003.78
2016-05-08T09:40:13.197Z,1003.75
2016-05-08T09:41:13.231Z,1003.79
2016-05-08T09:42:13.265Z,1003.81
2016-05-08T09:43:13.314Z,1003.79
2016-05-08T09:44:13.348Z,1003.75
2016-05-08T09:45:13.397Z,1003.75
2016-05-08T09:46:13.447Z,1003.81
2016-05-08T09:47:13.482Z,1003.92
2016-05-08T09:48:13.531Z,1003.8
2016-05-08T09:49:13.581Z,1003.8
2016-05-08T09:50:13.661Z,1003.83
2016-05-08T09:51:13.680Z,1003.86
2016-05-08T09:52:13.714Z,1003.79
2016-05-08T09:53:13.763Z,1003.78
2016-05-08T09:54:13.813Z,1003.76
2016-05-08T09:55:13.846Z,1003.77
2016-05-08T09:56:13.897Z,1003.77
2016-05-08T09:57:13.977Z,1003.74
2016-05-08T09:58:14.418Z,1003.72
2016-05-08T09:59:14.030Z,1003.69
2016-05-08T10:00:14.079Z,1003.73
2016-05-08T10:01:14.113Z,1003.7
2016-05-08T10:02:14.162Z,1003.67
2016-05-08T10:03:14.212Z,1003.74
2016-05-08T10:04:14.262Z,1003.9
2016-05-08T10:05:14.296Z,1004.32
2016-05-08T10:06:14.345Z,1004.61
2016-05-08T10:07:14.395Z,1004.63
2016-05-08T10:08:14.476Z,1004.69
2016-05-08T10:09:14.478Z,1004.69
2016-05-08T10:10:14.543Z,1004.01
2016-05-08T10:11:14.577Z,1004.27
2016-05-08T10:12:14.626Z,1003.77
2016-05-08T10:13:14.677Z,1004.44
2016-05-08T10:14:14.725Z,1004.56
2016-05-08T10:15:14.792Z,1003.96
2016-05-08T10:16:14.809Z,1003.82
2016-05-08T10:17:14.859Z,1004.17
2016-05-08T10:18:14.909Z,1004.82
2016-05-08T10:19:14.958Z,1004.79
2016-05-08T10:20:15.008Z,1004.78
2016-05-08T10:21:15.058Z,1004.8
2016-05-08T10:22:15.138Z,1004.81
2016-05-08T10:23:15.250Z,1004.86
2016-05-08T10:24:15.217Z,1004.78
2016-05-08T10:25:15.267Z,1004.77
2016-05-08T10:26:15.316Z,1004.75
2016-05-08T10:27:15.381Z,1004.7
2016-05-08T10:28:15.430Z,1004.69
2016-05-08T10:29:15.480Z,1004.65
2016-05-08T10:30:15.546Z,1004.61
2016-05-08T10:31:15.611Z,1004.68
2016-05-08T10:32:15.660Z,1004.68
2016-05-08T10:33:15.710Z,1004.68
2016-05-08T10:34:15.775Z,1004.68
2016-05-08T10:35:15.824Z,1004.33
2016-05-08T10:36:15.921Z,1004.55
2016-05-08T10:37:15.954Z,1003.7
2016-05-08T10:38:16.004Z,1004.11
2016-05-08T10:39:16.070Z,1003.78
2016-05-08T10:40:16.118Z,1003.82
2016-05-08T10:41:16.168Z,1003.79
2016-05-08T10:42:16.234Z,1003.81
2016-05-08T10:43:16.315Z,1003.82
2016-05-08T10:44:16.348Z,1004.06
2016-05-08T10:45:16.398Z,1004.33
2016-05-08T10:46:16.448Z,1004.34
2016-05-08T10:47:16.513Z,1004.28
2016-05-08T10:48:16.562Z,1004.29
2016-05-08T10:49:16.628Z,1004.27
2016-05-08T10:50:16.725Z,1003.66
2016-05-08T10:51:16.728Z,1003.69
2016-05-08T10:52:16.792Z,1003.75
2016-05-08T10:53:16.858Z,1003.84
2016-05-08T10:54:16.906Z,1003.84
2016-05-08T10:55:16.956Z,1003.81
2016-05-08T10:56:17.022Z,1004.07
2016-05-08T10:57:17.119Z,1003.78
2016-05-08T10:58:17.152Z,1003.77
2016-05-08T10:59:17.186Z,1003.78
2016-05-08T11:00:17.236Z,1003.73
2016-05-08T11:01:17.285Z,1003.76
2016-05-08T11:02:17.335Z,1003.8
2016-05-08T11:03:17.399Z,1003.76
2016-05-08T11:04:17.480Z,1003.77
2016-05-08T11:05:17.498Z,1003.67
2016-05-08T11:06:17.548Z,1003.64
2016-05-08T11:07:17.599Z,1003.65
2016-05-08T11:08:17.648Z,1003.63
2016-05-08T11:09:17.712Z,1003.59
2016-05-08T11:10:17.746Z,1003.67
2016-05-08T11:11:17.827Z,1003.68
2016-05-08T11:12:17.846Z,1003.71
2016-05-08T11:13:17.895Z,1003.94
2016-05-08T11:14:18.007Z,1003.72
2016-05-08T11:15:18.010Z,1003.72
2016-05-08T11:16:18.060Z,1003.7
2016-05-08T11:17:18.110Z,1003.7
2016-05-08T11:18:18.190Z,1003.95
2016-05-08T11:19:18.209Z,1003.58
2016-05-08T11:20:18.258Z,1003.65
2016-05-08T11:21:18.308Z,1003.64
2016-05-08T11:22:18.356Z,1003.67
2016-05-08T11:23:18.406Z,1003.57
2016-05-08T11:24:18.456Z,1003.59
2016-05-08T11:25:18.522Z,1003.56
2016-05-08T11:26:18.571Z,1003.56
2016-05-08T11:27:18.620Z,1003.92
2016-05-08T11:28:18.873Z,1003.64
2016-05-08T11:29:18.735Z,1003.65
2016-05-08T11:30:18.769Z,1004.28
2016-05-08T11:31:18.802Z,1003.65
2016-05-08T11:32:18.853Z,1003.64
2016-05-08T11:33:18.919Z,1004.32
2016-05-08T11:34:18.968Z,1004.19
2016-05-08T11:35:19.017Z,1004.19
2016-05-08T11:36:19.098Z,1004.28
2016-05-08T11:37:19.116Z,1003.97
2016-05-08T11:38:19.166Z,1003.63
2016-05-08T11:39:19.231Z,1003.73
2016-05-08T11:40:19.280Z,1004.36
2016-05-08T11:41:19.346Z,1004.45
2016-05-08T11:42:19.395Z,1003.66
2016-05-08T11:43:19.476Z,1003.71
2016-05-08T11:44:19.510Z,1003.56
2016-05-08T11:45:19.559Z,1004.32
2016-05-08T11:46:19.609Z,1004.37
2016-05-08T11:47:19.658Z,1004.4
2016-05-08T11:48:19.756Z,1003.58
2016-05-08T11:49:19.848Z,1003.57
2016-05-08T11:50:19.955Z,1003.58
2016-05-08T11:51:20.047Z,1004.15
2016-05-08T11:52:20.137Z,1004.3
2016-05-08T11:53:20.224Z,1004.21
2016-05-08T11:54:20.304Z,1004.37
2016-05-08T11:55:20.384Z,1004.35
2016-05-08T11:56:20.433Z,1003.54
2016-05-08T11:57:20.528Z,1003.55
2016-05-08T11:58:20.586Z,1003.52
2016-05-08T11:59:20.641Z,1004.01
2016-05-08T12:00:20.696Z,1004.37
2016-05-08T12:01:20.766Z,1003.58
2016-05-08T12:02:20.821Z,1003.47
2016-05-08T12:03:20.890Z,1003.48
2016-05-08T12:04:20.941Z,1003.47
2016-05-08T12:05:21.008Z,1003.5
2016-05-08T12:06:21.059Z,1003.45
2016-05-08T12:07:21.111Z,1004.24
2016-05-08T12:08:21.176Z,1004.25